createdAt,value
2016-09-06T00:00:28.375Z,1018.58
2016-09-06T00:01:28.381Z,1018.61
2016-09-06T00:02:28.739Z,1018.62
2016-09-06T00:03:28.395Z,1018.62
2016-09-06T00:04:28.403Z,1018.6
2016-09-06T00:05:28.408Z,1018.63
2016-09-06T00:06:28.416Z,1018.62
2016-09-06T00:07:28.422Z,1018.61
2016-09-06T00:08:28.432Z,1018.62
2016-09-06T00:09:28.439Z,1018.6
2016-09-06T00:10:28.446Z,1018.59
2016-09-06T00:11:28.454Z,1018.58
2016-09-06T00:12:28.461Z,1018.58
2016-09-06T00:13:28.869Z,1018.57
2016-09-06T00:14:28.477Z,1018.6
2016-09-06T00:15:28.482Z,1018.56
2016-09-06T00:16:28.489Z,1018.54
2016-09-06T00:17:28.497Z,1018.55
2016-09-06T00:18:28.505Z,1018.58
2016-09-06T00:19:28.511Z,1018.62
2016-09-06T00:20:28.519Z,1018.6
2016-09-06T00:21:28.525Z,1018.61
2016-09-06T00:22:28.535Z,1018.63
2016-09-06T00:23:28.540Z,1018.61
2016-09-06T00:24:29.049Z,1018.64
2016-09-06T00:25:28.557Z,1018.66
2016-09-06T00:26:28.564Z,1018.66
2016-09-06T00:27:28.570Z,1018.64
2016-09-06T00:28:28.578Z,1018.63
2016-09-06T00:29:28.586Z,1018.65
2016-09-06T00:30:28.591Z,1018.65
2016-09-06T00:31:28.601Z,1018.68
2016-09-06T00:32:28.608Z,1018.69
2016-09-06T00:33:28.617Z,1018.71
2016-09-06T00:34:28.623Z,1018.68
2016-09-06T00:35:29.731Z,1018.66
2016-09-06T00:36:28.636Z,1018.65
2016-09-06T00:37:28.644Z,1018.67
2016-09-06T00:38:28.652Z,1018.72
2016-09-06T00:39:28.658Z,1018.69
2016-09-06T00:40:28.665Z,1018.7
2016-09-06T00:41:28.723Z,1018.7
2016-09-06T00:42:28.680Z,1018.73
2016-09-06T00:43:28.689Z,1018.7
2016-09-06T00:44:28.746Z,1018.67
2016-09-06T00:45:28.703Z,1018.69
2016-09-06T00:46:29.761Z,1018.64
2016-09-06T00:47:28.722Z,1018.66
2016-09-06T00:48:28.723Z,1018.64
2016-09-06T00:49:28.733Z,1018.69
2016-09-06T00:50:28.741Z,1018.68
2016-09-06T00:51:28.747Z,1018.7
2016-09-06T00:52:28.751Z,1018.7
2016-09-06T00:53:28.761Z,1018.69
2016-09-06T00:54:28.767Z,1018.68
2016-09-06T00:55:28.777Z,1018.69
2016-09-06T00:56:28.782Z,1018.7
2016-09-06T00:57:29.906Z,1018.73
2016-09-06T00:58:28.799Z,1018.64
2016-09-06T00:59:28.805Z,1018.7
2016-09-06T01:00:28.810Z,1018.71
2016-09-06T01:01:28.820Z,1018.7
2016-09-06T01:02:28.826Z,1018.67
2016-09-06T01:03:28.833Z,1018.68
2016-09-06T01:04:28.844Z,1018.68
2016-09-06T01:05:28.848Z,1018.66
2016-09-06T01:06:28.855Z,1018.69
2016-09-06T01:07:28.861Z,1018.66
2016-09-06T01:08:29.962Z,1018.69
2016-09-06T01:09:28.877Z,1018.63
2016-09-06T01:10:28.882Z,1018.64
2016-09-06T01:11:28.891Z,1018.63
2016-09-06T01:12:28.898Z,1018.6
2016-09-06T01:13:28.906Z,1018.61
2016-09-06T01:14:28.911Z,1018.6
2016-09-06T01:15:28.922Z,1018.62
2016-09-06T01:16:28.927Z,1018.61
2016-09-06T01:17:28.936Z,1018.63
2016-09-06T01:18:28.941Z,1018.6
2016-09-06T01:19:30.089Z,1018.64
2016-09-06T01:20:28.956Z,1018.66
2016-09-06T01:21:28.962Z,1018.66
2016-09-06T01:22:29.321Z,1018.69
2016-09-06T01:23:28.978Z,1018.7
2016-09-06T01:24:28.984Z,1018.7
2016-09-06T01:25:28.991Z,1018.72
2016-09-06T01:26:29.006Z,1018.73
2016-09-06T01:27:29.006Z,1018.77
2016-09-06T01:28:29.013Z,1018.72
2016-09-06T01:29:29.020Z,1018.75
2016-09-06T01:30:30.132Z,1018.76
2016-09-06T01:31:29.035Z,1018.8
2016-09-06T01:32:29.043Z,1018.78
2016-09-06T01:33:29.047Z,1018.8
2016-09-06T01:34:29.055Z,1018.77
2016-09-06T01:35:29.063Z,1018.78
2016-09-06T01:36:29.069Z,1018.81
2016-09-06T01:37:29.077Z,1018.78
2016-09-06T01:38:29.134Z,1018.82
2016-09-06T01:39:29.091Z,1018.82
2016-09-06T01:40:29.098Z,1018.84
2016-09-06T01:41:29.105Z,1018.8
2016-09-06T01:42:29.111Z,1018.84
2016-09-06T01:43:29.119Z,1018.82
2016-09-06T01:44:29.128Z,1018.81
2016-09-06T01:45:29.133Z,1018.81
2016-09-06T01:46:29.142Z,1018.82
2016-09-06T01:47:29.148Z,1018.83
2016-09-06T01:48:29.156Z,1018.83
2016-09-06T01:49:29.163Z,1018.8
2016-09-06T01:50:29.169Z,1018.81
2016-09-06T01:51:29.177Z,1018.8
2016-09-06T01:52:29.184Z,1018.83
2016-09-06T01:53:29.189Z,1018.81
2016-09-06T01:54:29.199Z,1018.83
2016-09-06T01:55:29.205Z,1018.8
2016-09-06T01:56:29.212Z,1018.81
2016-09-06T01:57:29.221Z,1018.77
2016-09-06T01:58:29.226Z,1018.79
2016-09-06T01:59:29.233Z,1018.76
2016-09-06T02:00:29.241Z,1018.81
2016-09-06T02:01:29.248Z,1018.79
2016-09-06T02:02:29.256Z,1018.8
2016-09-06T02:03:29.264Z,1018.84
2016-09-06T02:04:29.271Z,1018.78
2016-09-06T02:05:29.276Z,1018.79
2016-09-06T02:06:29.284Z,1018.79
2016-09-06T02:07:29.291Z,1018.76
2016-09-06T02:08:29.299Z,1018.78
2016-09-06T02:09:29.306Z,1018.76
2016-09-06T02:10:29.313Z,1018.78
2016-09-06T02:11:29.319Z,1018.79
2016-09-06T02:12:29.330Z,1018.78
2016-09-06T02:13:29.335Z,1018.74
2016-09-06T02:14:29.342Z,1018.76
2016-09-06T02:15:29.350Z,1018.77
2016-09-06T02:16:29.354Z,1018.74
2016-09-06T02:17:29.362Z,1018.77
2016-09-06T02:18:29.370Z,1018.8
2016-09-06T02:19:29.378Z,1018.77
2016-09-06T02:20:29.385Z,1018.76
2016-09-06T02:21:29.443Z,1018.79
2016-09-06T02:22:29.400Z,1018.8
2016-09-06T02:23:29.405Z,1018.76
2016-09-06T02:24:29.418Z,1018.8
2016-09-06T02:25:29.418Z,1018.83
2016-09-06T02:26:29.427Z,1018.8
2016-09-06T02:27:29.435Z,1018.83
2016-09-06T02:28:29.443Z,1018.84
2016-09-06T02:29:29.448Z,1018.84
2016-09-06T02:30:29.455Z,1018.86
2016-09-06T02:31:29.462Z,1018.82
2016-09-06T02:32:29.469Z,1018.85
2016-09-06T02:33:29.476Z,1018.84
2016-09-06T02:34:29.483Z,1018.86
2016-09-06T02:35:29.491Z,1018.87
2016-09-06T02:36:29.497Z,1018.93
2016-09-06T02:37:29.503Z,1018.94
2016-09-06T02:38:29.512Z,1018.92
2016-09-06T02:39:29.518Z,1018.9
2016-09-06T02:40:29.526Z,1018.94
2016-09-06T02:41:29.532Z,1018.98
2016-09-06T02:42:29.539Z,1018.96
2016-09-06T02:43:29.547Z,1018.94
2016-09-06T02:44:29.553Z,1018.99
2016-09-06T02:45:29.610Z,1018.98
2016-09-06T02:46:29.567Z,1019
2016-09-06T02:47:29.576Z,1019.01
2016-09-06T02:48:29.581Z,1019.06
2016-09-06T02:49:29.587Z,1019.04
2016-09-06T02:50:29.596Z,1019.03
2016-09-06T02:51:29.604Z,1019.02
2016-09-06T02:52:29.609Z,1019.05
2016-09-06T02:53:29.618Z,1019.04
2016-09-06T02:54:29.627Z,1019.03
2016-09-06T02:55:29.631Z,1019.04
2016-09-06T02:56:29.635Z,1019.04
2016-09-06T02:57:29.646Z,1019.06
2016-09-06T02:58:29.652Z,1019.06
2016-09-06T02:59:29.659Z,1019.09
2016-09-06T03:00:29.666Z,1019.1
2016-09-06T03:01:29.673Z,1019.08
2016-09-06T03:02:29.681Z,1019.04
2016-09-06T03:03:29.688Z,1019.08
2016-09-06T03:04:29.694Z,1019.09
2016-09-06T03:05:29.702Z,1019.07
2016-09-06T03:06:29.709Z,1019.09
2016-09-06T03:07:29.716Z,1019.1
2016-09-06T03:08:29.723Z,1019.11
2016-09-06T03:09:29.730Z,1019.09
2016-09-06T03:10:29.736Z,1019.07
2016-09-06T03:11:29.741Z,1019.1
2016-09-06T03:12:29.750Z,1019.12
2016-09-06T03:13:29.758Z,1019.12
2016-09-06T03:14:29.765Z,1019.11
2016-09-06T03:15:29.770Z,1019.07
2016-09-06T03:16:29.778Z,1019.07
2016-09-06T03:17:29.784Z,1019.05
2016-09-06T03:18:29.791Z,1019.09
2016-09-06T03:19:29.799Z,1019.06
2016-09-06T03:20:29.806Z,1019.09
2016-09-06T03:21:29.818Z,1019.07
2016-09-06T03:22:29.820Z,1019.09
2016-09-06T03:23:29.828Z,1019.07
2016-09-06T03:24:29.835Z,1019.05
2016-09-06T03:25:29.843Z,1019.1
2016-09-06T03:26:29.848Z,1019.08
2016-09-06T03:27:29.855Z,1019.07
2016-09-06T03:28:29.863Z,1019.1
2016-09-06T03:29:29.869Z,1019.02
2016-09-06T03:30:29.876Z,1019.04
2016-09-06T03:31:29.884Z,1019.08
2016-09-06T03:32:29.891Z,1019.08
2016-09-06T03:33:29.897Z,1019.08
2016-09-06T03:34:29.904Z,1019.08
2016-09-06T03:35:29.911Z,1019.05
2016-09-06T03:36:29.919Z,1019.06
2016-09-06T03:37:29.926Z,1019.06
2016-09-06T03:38:29.934Z,1019.02
2016-09-06T03:39:29.941Z,1019.03
2016-09-06T03:40:29.946Z,1019.03
2016-09-06T03:41:29.954Z,1019.02
2016-09-06T03:42:29.962Z,1019.01
2016-09-06T03:43:29.969Z,1019.04
2016-09-06T03:44:30.225Z,1019.06
2016-09-06T03:45:29.983Z,1019.07
2016-09-06T03:46:30.039Z,1019.08
2016-09-06T03:47:29.996Z,1019.12
2016-09-06T03:48:30.003Z,1019.09
2016-09-06T03:49:30.010Z,1019.07
2016-09-06T03:50:30.016Z,1019.12
2016-09-06T03:51:30.024Z,1019.12
2016-09-06T03:52:30.032Z,1019.14
2016-09-06T03:53:30.039Z,1019.13
2016-09-06T03:54:30.045Z,1019.15
2016-09-06T03:55:30.453Z,1019.12
2016-09-06T03:56:30.061Z,1019.13
2016-09-06T03:57:30.067Z,1019.15
2016-09-06T03:58:30.075Z,1019.13
2016-09-06T03:59:30.081Z,1019.16
2016-09-06T04:00:30.089Z,1019.19
2016-09-06T04:01:30.096Z,1019.17
2016-09-06T04:02:30.103Z,1019.17
2016-09-06T04:03:30.110Z,1019.18
2016-09-06T04:04:30.118Z,1019.2
2016-09-06T04:05:30.825Z,1019.17
2016-09-06T04:06:30.681Z,1019.15
2016-09-06T04:07:30.140Z,1019.17
2016-09-06T04:08:30.147Z,1019.17
2016-09-06T04:09:30.153Z,1019.19
2016-09-06T04:10:30.164Z,1019.23
2016-09-06T04:11:30.166Z,1019.24
2016-09-06T04:12:30.175Z,1019.24
2016-09-06T04:13:30.182Z,1019.25
2016-09-06T04:14:30.187Z,1019.28
2016-09-06T04:15:30.197Z,1019.26
2016-09-06T04:16:30.203Z,1019.29
2016-09-06T04:17:31.111Z,1019.26
2016-09-06T04:18:30.217Z,1019.25
2016-09-06T04:19:30.223Z,1019.29
2016-09-06T04:20:30.230Z,1019.27
2016-09-06T04:21:30.237Z,1019.28
2016-09-06T04:22:30.245Z,1019.32
2016-09-06T04:23:30.252Z,1019.27
2016-09-06T04:24:30.259Z,1019.33
2016-09-06T04:25:30.266Z,1019.36
2016-09-06T04:26:30.274Z,1019.36
2016-09-06T04:27:30.279Z,1019.4
2016-09-06T04:28:30.285Z,1019.39
2016-09-06T04:29:30.346Z,1019.43
2016-09-06T04:30:30.303Z,1019.43
2016-09-06T04:31:30.309Z,1019.43
2016-09-06T04:32:30.317Z,1019.42
2016-09-06T04:33:30.324Z,1019.48
2016-09-06T04:34:30.328Z,1019.5
2016-09-06T04:35:30.337Z,1019.5
2016-09-06T04:36:30.344Z,1019.54
2016-09-06T04:37:30.352Z,1019.52
2016-09-06T04:38:30.358Z,1019.55
2016-09-06T04:39:30.366Z,1019.51
2016-09-06T04:40:30.374Z,1019.53
2016-09-06T04:41:30.381Z,1019.51
2016-09-06T04:42:30.387Z,1019.53
2016-09-06T04:43:30.392Z,1019.54
2016-09-06T04:44:30.401Z,1019.55
2016-09-06T04:45:30.409Z,1019.58
2016-09-06T04:46:30.414Z,1019.56
2016-09-06T04:47:30.421Z,1019.59
2016-09-06T04:48:31.031Z,1019.61
2016-09-06T04:49:30.437Z,1019.65
2016-09-06T04:50:30.444Z,1019.65
2016-09-06T04:51:30.451Z,1019.62
2016-09-06T04:52:30.458Z,1019.61
2016-09-06T04:53:30.464Z,1019.65
2016-09-06T04:54:30.471Z,1019.7
2016-09-06T04:55:30.479Z,1019.66
2016-09-06T04:56:30.486Z,1019.7
2016-09-06T04:57:30.492Z,1019.71
2016-09-06T04:58:30.549Z,1019.73
2016-09-06T04:59:31.558Z,1019.75
2016-09-06T05:00:30.515Z,1019.72
2016-09-06T05:01:30.520Z,1019.73
2016-09-06T05:02:30.529Z,1019.74
2016-09-06T05:03:30.535Z,1019.76
2016-09-06T05:04:30.542Z,1019.78
2016-09-06T05:05:30.548Z,1019.78
2016-09-06T05:06:30.556Z,1019.79
2016-09-06T05:07:30.565Z,1019.78
2016-09-06T05:08:30.570Z,1019.78
2016-09-06T05:09:30.578Z,1019.78
2016-09-06T05:10:31.686Z,1019.78
2016-09-06T05:11:30.590Z,1019.79
2016-09-06T05:12:30.597Z,1019.8
2016-09-06T05:13:30.604Z,1019.81
2016-09-06T05:14:30.613Z,1019.82
2016-09-06T05:15:30.620Z,1019.83
2016-09-06T05:16:30.627Z,1019.82
2016-09-06T05:17:30.635Z,1019.83
2016-09-06T05:18:30.641Z,1019.82
2016-09-06T05:19:30.649Z,1019.83
2016-09-06T05:20:30.654Z,1019.8
2016-09-06T05:21:30.662Z,1019.84
2016-09-06T05:22:30.669Z,1019.8
2016-09-06T05:23:30.677Z,1019.84
2016-09-06T05:24:30.683Z,1019.8
2016-09-06T05:25:30.702Z,1019.76
2016-09-06T05:26:30.697Z,1019.76
2016-09-06T05:27:30.705Z,1019.78
2016-09-06T05:28:30.712Z,1019.78
2016-09-06T05:29:30.720Z,1019.8
2016-09-06T05:30:30.725Z,1019.74
2016-09-06T05:31:30.740Z,1019.77
2016-09-06T05:32:30.740Z,1019.76
2016-09-06T05:33:30.746Z,1019.8
2016-09-06T05:34:30.754Z,1019.79
2016-09-06T05:35:30.761Z,1019.77
2016-09-06T05:36:30.768Z,1019.82
2016-09-06T05:37:30.774Z,1019.82
2016-09-06T05:38:30.784Z,1019.8
2016-09-06T05:39:30.790Z,1019.83
2016-09-06T05:40:30.798Z,1019.81
2016-09-06T05:41:30.804Z,1019.8
2016-09-06T05:42:30.811Z,1019.84
2016-09-06T05:43:30.819Z,1019.84
2016-09-06T05:44:30.825Z,1019.83
2016-09-06T05:45:30.832Z,1019.83
2016-09-06T05:46:30.839Z,1019.87
2016-09-06T05:47:30.848Z,1019.85
2016-09-06T05:48:30.853Z,1019.92
2016-09-06T05:49:30.862Z,1019.9
2016-09-06T05:50:30.867Z,1019.92
2016-09-06T05:51:30.876Z,1019.94
2016-09-06T05:52:30.882Z,1019.94
2016-09-06T05:53:30.890Z,1019.99
2016-09-06T05:54:30.897Z,1020.02
2016-09-06T05:55:30.904Z,1020.02
2016-09-06T05:56:30.912Z,1020.05
2016-09-06T05:57:30.919Z,1020.05
2016-09-06T05:58:30.928Z,1020.04
2016-09-06T05:59:30.935Z,1020.08
2016-09-06T06:00:30.940Z,1020.05
2016-09-06T06:01:30.949Z,1020.11
2016-09-06T06:02:30.958Z,1020.11
2016-09-06T06:03:30.978Z,1020.17
2016-09-06T06:04:30.973Z,1020.16
2016-09-06T06:05:30.978Z,1020.2
2016-09-06T06:06:30.985Z,1020.18
2016-09-06T06:07:30.993Z,1020.19
2016-09-06T06:08:31.000Z,1020.2
2016-09-06T06:09:31.007Z,1020.17
2016-09-06T06:10:31.015Z,1020.22
2016-09-06T06:11:31.029Z,1020.2
2016-09-06T06:12:31.031Z,1020.21
2016-09-06T06:13:31.038Z,1020.24
2016-09-06T06:14:31.045Z,1020.23
2016-09-06T06:15:31.053Z,1020.25
2016-09-06T06:16:31.060Z,1020.28
2016-09-06T06:17:31.067Z,1020.24
2016-09-06T06:18:31.074Z,1020.28
2016-09-06T06:19:31.081Z,1020.27
2016-09-06T06:20:31.090Z,1020.24
2016-09-06T06:21:31.097Z,1020.3
2016-09-06T06:22:31.103Z,1020.25
2016-09-06T06:23:31.112Z,1020.34
2016-09-06T06:24:31.118Z,1020.33
2016-09-06T06:25:31.127Z,1020.3
2016-09-06T06:26:31.134Z,1020.4
2016-09-06T06:27:31.142Z,1020.43
2016-09-06T06:28:31.149Z,1020.38
2016-09-06T06:29:31.159Z,1020.29
2016-09-06T06:30:31.164Z,1020.28
2016-09-06T06:31:31.172Z,1020.27
2016-09-06T06:32:31.176Z,1020.29
2016-09-06T06:33:31.187Z,1020.32
2016-09-06T06:34:31.192Z,1020.39
2016-09-06T06:35:31.202Z,1020.44
2016-09-06T06:36:31.211Z,1020.38
2016-09-06T06:37:31.216Z,1020.43
2016-09-06T06:38:31.227Z,1020.37
2016-09-06T06:39:31.230Z,1020.46
2016-09-06T06:40:31.339Z,1020.48
2016-09-06T06:41:31.247Z,1020.77
2016-09-06T06:42:31.253Z,1020.94
2016-09-06T06:43:31.262Z,1020.95
2016-09-06T06:44:31.271Z,1021
2016-09-06T06:45:31.282Z,1021.05
2016-09-06T06:46:31.287Z,1021.08
2016-09-06T06:47:31.297Z,1021.04
2016-09-06T06:48:31.304Z,1020.69
2016-09-06T06:49:31.317Z,1020.27
2016-09-06T06:50:31.323Z,1020.23
2016-09-06T06:51:31.779Z,1020.18
2016-09-06T06:52:31.337Z,1020.16
2016-09-06T06:53:31.348Z,1020.2
2016-09-06T06:54:31.353Z,1020.18
2016-09-06T06:55:31.366Z,1020.17
2016-09-06T06:56:31.372Z,1020.16
2016-09-06T06:57:31.378Z,1020.19
2016-09-06T06:58:31.395Z,1020.15
2016-09-06T06:59:31.396Z,1020.18
2016-09-06T07:00:31.404Z,1020.17
2016-09-06T07:01:31.411Z,1020.17
2016-09-06T07:02:32.071Z,1020.25
2016-09-06T07:03:31.429Z,1020.22
2016-09-06T07:04:31.497Z,1020.23
2016-09-06T07:05:31.448Z,1020.25
2016-09-06T07:06:31.453Z,1020.24
2016-09-06T07:07:31.466Z,1020.21
2016-09-06T07:08:31.470Z,1020.28
2016-09-06T07:09:31.475Z,1020.23
2016-09-06T07:10:31.485Z,1020.24
2016-09-06T07:11:31.491Z,1020.26
2016-09-06T07:12:31.499Z,1020.23
2016-09-06T07:13:32.207Z,1020.23
2016-09-06T07:14:31.514Z,1020.22
2016-09-06T07:15:31.523Z,1020.23
2016-09-06T07:16:31.531Z,1020.19
2016-09-06T07:17:31.537Z,1020.17
2016-09-06T07:18:31.546Z,1020.19
2016-09-06T07:19:31.553Z,1020.19
2016-09-06T07:20:31.560Z,1020.21
2016-09-06T07:21:31.575Z,1020.24
2016-09-06T07:22:31.578Z,1020.2
2016-09-06T07:23:31.585Z,1020.25
2016-09-06T07:24:32.594Z,1020.27
2016-09-06T07:25:31.601Z,1020.28
2016-09-06T07:26:31.608Z,1020.25
2016-09-06T07:27:31.665Z,1020.29
2016-09-06T07:28:31.625Z,1020.3
2016-09-06T07:29:31.632Z,1020.28
2016-09-06T07:30:31.639Z,1020.26
2016-09-06T07:31:31.648Z,1020.26
2016-09-06T07:32:31.654Z,1020.25
2016-09-06T07:33:31.663Z,1020.28
2016-09-06T07:34:31.669Z,1020.33
2016-09-06T07:35:31.677Z,1020.33
2016-09-06T07:36:31.685Z,1020.33
2016-09-06T07:37:31.694Z,1020.32
2016-09-06T07:38:31.701Z,1020.34
2016-09-06T07:39:31.709Z,1020.34
2016-09-06T07:40:31.716Z,1020.32
2016-09-06T07:41:31.724Z,1020.37
2016-09-06T07:42:31.730Z,1020.36
2016-09-06T07:43:31.739Z,1020.37
2016-09-06T07:44:31.746Z,1020.37
2016-09-06T07:45:31.752Z,1020.41
2016-09-06T07:46:31.762Z,1020.41
2016-09-06T07:47:31.770Z,1020.4
2016-09-06T07:48:31.777Z,1020.44
2016-09-06T07:49:31.785Z,1020.48
2016-09-06T07:50:31.793Z,1020.47
2016-09-06T07:51:31.799Z,1020.48
2016-09-06T07:52:31.809Z,1020.49
2016-09-06T07:53:31.815Z,1020.49
2016-09-06T07:54:31.823Z,1020.49
2016-09-06T07:55:32.432Z,1020.51
2016-09-06T07:56:31.838Z,1020.48
2016-09-06T07:57:31.847Z,1020.47
2016-09-06T07:58:31.852Z,1020.5
2016-09-06T07:59:31.863Z,1020.47
2016-09-06T08:00:31.869Z,1020.46
2016-09-06T08:01:31.878Z,1020.46
2016-09-06T08:02:31.885Z,1020.47
2016-09-06T08:03:31.891Z,1020.45
2016-09-06T08:04:31.900Z,1020.42
2016-09-06T08:05:31.908Z,1020.4
2016-09-06T08:06:32.917Z,1020.45
2016-09-06T08:07:31.922Z,1020.45
2016-09-06T08:08:31.930Z,1020.47
2016-09-06T08:09:31.936Z,1020.44
2016-09-06T08:10:31.946Z,1020.41
2016-09-06T08:11:31.952Z,1020.44
2016-09-06T08:12:31.961Z,1020.46
2016-09-06T08:13:32.018Z,1020.45
2016-09-06T08:14:31.975Z,1020.47
2016-09-06T08:15:31.982Z,1020.45
2016-09-06T08:16:31.990Z,1020.5
2016-09-06T08:17:31.999Z,1020.49
2016-09-06T08:18:32.006Z,1020.52
2016-09-06T08:19:32.013Z,1020.5
2016-09-06T08:20:32.026Z,1020.49
2016-09-06T08:21:32.028Z,1020.51
2016-09-06T08:22:32.034Z,1020.52
2016-09-06T08:23:32.043Z,1020.56
2016-09-06T08:24:32.053Z,1020.54
2016-09-06T08:25:32.059Z,1020.57
2016-09-06T08:26:32.468Z,1020.61
2016-09-06T08:27:32.073Z,1021.03
2016-09-06T08:28:32.081Z,1021.26
2016-09-06T08:29:32.089Z,1021.27
2016-09-06T08:30:32.098Z,1021.3
2016-09-06T08:31:32.105Z,1021.31
2016-09-06T08:32:32.113Z,1021.27
2016-09-06T08:33:32.122Z,1021.27
2016-09-06T08:34:32.129Z,1021.29
2016-09-06T08:35:32.139Z,1021.32
2016-09-06T08:36:32.147Z,1021.31
2016-09-06T08:37:32.656Z,1021.25
2016-09-06T08:38:32.165Z,1021.24
2016-09-06T08:39:32.174Z,1021.14
2016-09-06T08:40:32.182Z,1021
2016-09-06T08:41:32.191Z,1020.75
2016-09-06T08:42:32.198Z,1020.6
2016-09-06T08:43:32.261Z,1020.63
2016-09-06T08:44:32.216Z,1020.68
2016-09-06T08:45:32.224Z,1020.6
2016-09-06T08:46:32.233Z,1020.64
2016-09-06T08:47:32.249Z,1020.68
2016-09-06T08:48:33.251Z,1020.64
2016-09-06T08:49:32.259Z,1020.7
2016-09-06T08:50:32.266Z,1020.7
2016-09-06T08:51:32.325Z,1020.7
2016-09-06T08:52:32.284Z,1020.72
2016-09-06T08:53:32.291Z,1020.71
2016-09-06T08:54:32.298Z,1020.75
2016-09-06T08:55:32.308Z,1020.74
2016-09-06T08:56:32.314Z,1020.72
2016-09-06T08:57:32.324Z,1020.72
2016-09-06T08:58:32.330Z,1020.71
2016-09-06T08:59:32.338Z,1020.74
2016-09-06T09:00:32.349Z,1020.72
2016-09-06T09:01:32.357Z,1020.77
2016-09-06T09:02:32.365Z,1020.76
2016-09-06T09:03:32.374Z,1020.75
2016-09-06T09:04:32.381Z,1020.76
2016-09-06T09:05:32.389Z,1020.72
2016-09-06T09:06:32.397Z,1020.74
2016-09-06T09:07:32.704Z,1020.75
2016-09-06T09:08:32.465Z,1020.75
2016-09-06T09:09:32.423Z,1020.74
2016-09-06T09:10:32.430Z,1020.74
2016-09-06T09:11:32.440Z,1020.75
2016-09-06T09:12:32.447Z,1020.77
2016-09-06T09:13:32.455Z,1020.73
2016-09-06T09:14:32.463Z,1020.69
2016-09-06T09:15:32.471Z,1020.73
2016-09-06T09:16:32.478Z,1020.72
2016-09-06T09:17:32.536Z,1020.74
2016-09-06T09:18:32.497Z,1020.7
2016-09-06T09:19:32.504Z,1020.71
2016-09-06T09:20:32.511Z,1020.71
2016-09-06T09:21:32.520Z,1020.69
2016-09-06T09:22:32.531Z,1020.67
2016-09-06T09:23:32.537Z,1020.69
2016-09-06T09:24:32.544Z,1020.68
2016-09-06T09:25:32.551Z,1020.66
2016-09-06T09:26:32.560Z,1020.68
2016-09-06T09:27:32.567Z,1020.65
2016-09-06T09:28:32.575Z,1020.65
2016-09-06T09:29:32.583Z,1020.63
2016-09-06T09:30:32.592Z,1020.63
2016-09-06T09:31:32.600Z,1020.65
2016-09-06T09:32:32.609Z,1020.64
2016-09-06T09:33:32.615Z,1020.63
2016-09-06T09:34:32.625Z,1020.6
2016-09-06T09:35:32.631Z,1020.6
2016-09-06T09:36:32.639Z,1020.6
2016-09-06T09:37:32.699Z,1020.59
2016-09-06T09:38:32.657Z,1020.56
2016-09-06T09:39:32.663Z,1020.58
2016-09-06T09:40:32.673Z,1020.55
2016-09-06T09:41:32.680Z,1020.53
2016-09-06T09:42:32.738Z,1020.54
2016-09-06T09:43:32.696Z,1020.54
2016-09-06T09:44:32.703Z,1020.46
2016-09-06T09:45:32.713Z,1020.51
2016-09-06T09:46:32.720Z,1020.51
2016-09-06T09:47:32.728Z,1020.49
2016-09-06T09:48:32.736Z,1020.47
2016-09-06T09:49:32.743Z,1020.46
2016-09-06T09:50:32.754Z,1020.48
2016-09-06T09:51:32.762Z,1020.5
2016-09-06T09:52:32.768Z,1020.47
2016-09-06T09:53:32.774Z,1020.46
2016-09-06T09:54:32.833Z,1020.48
2016-09-06T09:55:32.791Z,1020.5
2016-09-06T09:56:32.850Z,1020.46
2016-09-06T09:57:32.809Z,1020.46
2016-09-06T09:58:32.816Z,1020.42
2016-09-06T09:59:32.823Z,1020.46
2016-09-06T10:00:32.836Z,1020.46
2016-09-06T10:01:32.838Z,1020.43
2016-09-06T10:02:32.850Z,1020.41
2016-09-06T10:03:32.858Z,1020.39
2016-09-06T10:04:32.861Z,1020.41
2016-09-06T10:05:32.871Z,1020.4
2016-09-06T10:06:32.880Z,1020.4
2016-09-06T10:07:33.287Z,1020.41
2016-09-06T10:08:32.895Z,1020.41
2016-09-06T10:09:32.904Z,1020.37
2016-09-06T10:10:32.912Z,1020.35
2016-09-06T10:11:32.918Z,1020.37
2016-09-06T10:12:32.927Z,1020.36
2016-09-06T10:13:32.933Z,1020.37
2016-09-06T10:14:32.943Z,1020.39
2016-09-06T10:15:32.949Z,1020.31
2016-09-06T10:16:32.957Z,1020.32
2016-09-06T10:17:32.965Z,1020.3
2016-09-06T10:18:34.074Z,1020.3
2016-09-06T10:19:32.982Z,1020.32
2016-09-06T10:20:32.989Z,1020.38
2016-09-06T10:21:32.998Z,1020.34
2016-09-06T10:22:33.005Z,1020.38
2016-09-06T10:23:33.012Z,1020.34
2016-09-06T10:24:33.020Z,1020.31
2016-09-06T10:25:33.029Z,1020.33
2016-09-06T10:26:33.085Z,1020.34
2016-09-06T10:27:33.043Z,1020.35
2016-09-06T10:28:33.051Z,1020.31
2016-09-06T10:29:33.074Z,1020.35
2016-09-06T10:30:33.067Z,1020.33
2016-09-06T10:31:33.124Z,1020.34
2016-09-06T10:32:33.084Z,1020.33
2016-09-06T10:33:33.092Z,1020.34
2016-09-06T10:34:33.101Z,1020.31
2016-09-06T10:35:33.107Z,1020.29
2016-09-06T10:36:33.113Z,1020.28
2016-09-06T10:38:33.630Z,1020.3
2016-09-06T10:39:33.140Z,1020.31
2016-09-06T10:40:33.146Z,1020.26
2016-09-06T10:41:33.153Z,1020.31
2016-09-06T10:42:33.162Z,1020.28
2016-09-06T10:43:33.219Z,1020.24
2016-09-06T10:44:33.177Z,1020.23
2016-09-06T10:45:33.186Z,1020.24
2016-09-06T10:46:33.194Z,1020.28
2016-09-06T10:47:33.202Z,1020.27
2016-09-06T10:48:33.214Z,1020.25
2016-09-06T10:49:34.118Z,1020.25
2016-09-06T10:50:33.225Z,1020.26
2016-09-06T10:51:33.233Z,1020.24
2016-09-06T10:52:33.242Z,1020.19
2016-09-06T10:53:33.250Z,1020.18
2016-09-06T10:54:33.256Z,1020.24
2016-09-06T10:55:33.314Z,1020.23
2016-09-06T10:56:33.274Z,1020.25
2016-09-06T10:57:33.285Z,1020.24
2016-09-06T10:58:33.296Z,1020.2
2016-09-06T10:59:33.296Z,1020.16
2016-09-06T11:00:34.456Z,1020.16
2016-09-06T11:01:33.363Z,1020.16
2016-09-06T11:02:33.320Z,1020.16
2016-09-06T11:03:33.328Z,1020.11
2016-09-06T11:04:33.338Z,1020.1
2016-09-06T11:05:33.345Z,1020.09
2016-09-06T11:06:33.353Z,1020.09
2016-09-06T11:07:33.361Z,1020.08
2016-09-06T11:08:33.417Z,1020.06
2016-09-06T11:09:33.377Z,1020.05
2016-09-06T11:10:33.385Z,1020.06
2016-09-06T11:11:33.394Z,1020.02
2016-09-06T11:12:33.400Z,1020.1
2016-09-06T11:13:33.409Z,1020.1
2016-09-06T11:14:33.417Z,1020.11
2016-09-06T11:15:33.474Z,1020.14
2016-09-06T11:16:33.434Z,1020.14
2016-09-06T11:17:33.439Z,1020.13
2016-09-06T11:18:33.447Z,1020.13
2016-09-06T11:19:33.456Z,1020.12
2016-09-06T11:20:33.463Z,1020.1
2016-09-06T11:21:33.522Z,1020.13
2016-09-06T11:22:33.479Z,1020.13
2016-09-06T11:23:33.489Z,1020.1
2016-09-06T11:24:33.493Z,1020.08
2016-09-06T11:25:33.504Z,1020.1
2016-09-06T11:26:33.517Z,1020.08
2016-09-06T11:27:33.520Z,1020.1
2016-09-06T11:28:33.528Z,1020.12
2016-09-06T11:29:33.536Z,1020.1
2016-09-06T11:30:33.543Z,1020.15
2016-09-06T11:31:33.552Z,1020.08
2016-09-06T11:32:33.611Z,1020.07
2016-09-06T11:33:33.567Z,1020.07
2016-09-06T11:34:33.577Z,1020.05
2016-09-06T11:35:33.584Z,1020.07
2016-09-06T11:36:33.593Z,1020.06
2016-09-06T11:37:33.600Z,1020.07
2016-09-06T11:38:33.659Z,1020.06
2016-09-06T11:39:33.614Z,1020.04
2016-09-06T11:40:33.625Z,1020
2016-09-06T11:41:33.631Z,1020.02
2016-09-06T11:42:33.640Z,1020.01
2016-09-06T11:43:33.697Z,1019.98
2016-09-06T11:44:33.656Z,1019.96
2016-09-06T11:45:33.664Z,1020.01
2016-09-06T11:46:33.671Z,1019.95
2016-09-06T11:47:33.679Z,1019.97
2016-09-06T11:48:33.689Z,1019.96
2016-09-06T11:49:33.696Z,1019.91
2016-09-06T11:50:33.703Z,1019.89
2016-09-06T11:51:33.711Z,1019.89
2016-09-06T11:52:33.768Z,1019.89
2016-09-06T11:53:33.728Z,1019.88
2016-09-06T11:54:33.735Z,1019.87
2016-09-06T11:55:33.744Z,1019.84
2016-09-06T11:56:33.751Z,1019.84
2016-09-06T11:57:33.758Z,1019.8
2016-09-06T11:58:33.767Z,1019.81
2016-09-06T11:59:33.777Z,1019.81
2016-09-06T12:00:33.784Z,1019.78
2016-09-06T12:01:33.797Z,1019.8
2016-09-06T12:02:33.799Z,1019.84
2016-09-06T12:03:33.807Z,1019.75
2016-09-06T12:04:33.814Z,1019.74
2016-09-06T12:05:33.873Z,1019.82
2016-09-06T12:06:33.831Z,1019.83
2016-09-06T12:07:33.838Z,1019.83
2016-09-06T12:08:34.096Z,1019.85
2016-09-06T12:09:33.853Z,1019.84